createdAt,value
2018-12-29T00:01:14.104Z,99030.34
2018-12-29T00:03:44.623Z,99033.05
2018-12-29T00:06:16.701Z,99031.92
2018-12-29T00:08:48.927Z,99036.67
2018-12-29T00:11:20.935Z,99036.51
2018-12-29T00:13:52.933Z,99034.16
2018-12-29T00:16:25.092Z,99040.43
2018-12-29T00:18:57.116Z,99043.76
2018-12-29T00:21:27.772Z,99042.98
2018-12-29T00:23:59.941Z,99049.25
2018-12-29T00:26:31.944Z,99049.25
2018-12-29T00:29:03.943Z,99059.76
2018-12-29T00:31:36.239Z,99057.44
2018-12-29T00:34:07.052Z,99056.06
2018-12-29T00:36:39.110Z,99054.07
2018-12-29T00:39:11.280Z,99064.23
2018-12-29T00:41:42.076Z,99067.52
2018-12-29T00:44:19.649Z,99068.26
2018-12-29T00:46:51.921Z,99062.38
2018-12-29T00:49:23.945Z,99063.66
2018-12-29T00:51:55.935Z,99063.66
2018-12-29T00:54:28.113Z,99072.48
2018-12-29T00:57:00.304Z,99073.35
2018-12-29T00:59:31.311Z,99078.30
2018-12-29T01:02:03.488Z,99080.03
2018-12-29T01:04:36.939Z,99080.03
2018-12-29T01:07:09.277Z,99074.73
2018-12-29T01:09:41.272Z,99081.88
2018-12-29T01:12:11.974Z,99089.59
2018-12-29T01:14:45.460Z,99089.59
2018-12-29T01:17:17.644Z,99085.12
2018-12-29T01:19:49.699Z,99082.27
2018-12-29T01:22:21.729Z,99082.27
2018-12-29T01:24:53.921Z,99088.53
2018-12-29T01:27:25.946Z,99088.53
2018-12-29T01:29:58.667Z,99095.16
2018-12-29T01:32:31.328Z,99089.32
2018-12-29T01:35:03.308Z,99089.75
2018-12-29T01:37:35.336Z,99089.75
2018-12-29T01:40:08.071Z,99091.12
2018-12-29T01:42:40.950Z,99085.83
2018-12-29T01:45:17.329Z,99079.91
2018-12-29T01:47:47.256Z,99078.30
2018-12-29T01:50:17.875Z,99080.66
2018-12-29T01:52:50.088Z,99080.66
2018-12-29T01:55:22.102Z,99083.05
2018-12-29T01:57:54.281Z,99074.26
2018-12-29T02:00:24.978Z,99076.26
2018-12-29T02:02:56.950Z,99072.94
2018-12-29T02:05:29.476Z,99065.71
2018-12-29T02:08:01.660Z,99065.48
2018-12-29T02:10:33.751Z,99065.48
2018-12-29T02:13:05.751Z,99061.55
2018-12-29T02:15:37.798Z,99047.83
2018-12-29T02:19:19.747Z,99056.70
2018-12-29T02:21:51.764Z,99056.70
2018-12-29T02:24:23.952Z,99051.60
2018-12-29T02:26:57.682Z,99045.20
2018-12-29T02:29:29.794Z,99048.11
2018-12-29T02:32:01.912Z,99041.48
2018-12-29T02:34:33.952Z,99034.86
2018-12-29T02:37:06.127Z,99032.55
2018-12-29T02:39:39.755Z,99024.51
2018-12-29T02:42:11.943Z,99022.70
2018-12-29T02:44:44.074Z,99019.34
2018-12-29T02:47:16.140Z,99022.12
2018-12-29T02:49:46.784Z,99025.33
2018-12-29T02:52:18.948Z,99027.61
2018-12-29T02:54:51.113Z,99025.09
2018-12-29T02:57:22.614Z,99022.94
2018-12-29T02:59:55.330Z,99029.24
2018-12-29T03:02:27.637Z,99014.36
2018-12-29T03:04:59.873Z,99014.36
2018-12-29T03:07:32.127Z,99009.66
2018-12-29T03:10:02.803Z,99002.56
2018-12-29T03:12:34.891Z,98992.38
2018-12-29T03:15:07.359Z,98993.78
2018-12-29T03:17:37.999Z,98992.77
2018-12-29T03:20:09.959Z,98998.33
2018-12-29T03:22:41.959Z,98996.41
2018-12-29T03:25:13.969Z,98997.58
2018-12-29T03:27:46.104Z,99000.36
2018-12-29T03:30:19.740Z,98997.38
2018-12-29T03:32:51.761Z,98996.63
2018-12-29T03:35:23.963Z,98992.28
2018-12-29T03:37:55.968Z,98987.16
2018-12-29T03:40:28.667Z,98994.09
2018-12-29T03:43:00.685Z,98988.21
2018-12-29T03:45:32.733Z,98990.75
2018-12-29T03:48:04.742Z,98987.81
2018-12-29T03:50:36.950Z,98990.33
2018-12-29T03:53:09.337Z,98984.09
2018-12-29T03:55:41.282Z,98981.78
2018-12-29T03:58:12.023Z,98976.85
2018-12-29T04:00:44.288Z,98972.90
2018-12-29T04:03:15.367Z,98987.75
2018-12-29T04:05:47.682Z,98994.45
2018-12-29T04:08:19.769Z,98994.45
2018-12-29T04:10:51.895Z,98987.50
2018-12-29T04:13:23.990Z,98990.01
2018-12-29T04:15:58.201Z,99000.80
2018-12-29T04:18:29.781Z,99000.80
2018-12-29T04:21:01.893Z,98990.41
2018-12-29T04:23:33.949Z,98994.41
2018-12-29T04:26:05.954Z,98991.43
2018-12-29T04:28:37.945Z,98997.86
2018-12-29T04:31:09.953Z,99000.21
2018-12-29T04:33:41.951Z,98994.23
2018-12-29T04:36:14.116Z,98993.84
2018-12-29T04:38:44.871Z,98998.30
2018-12-29T04:41:16.947Z,98996.74
2018-12-29T04:43:48.959Z,99000.55
2018-12-29T04:46:20.955Z,99000.40
2018-12-29T04:48:53.092Z,99000.98
2018-12-29T04:51:25.292Z,99006.62
2018-12-29T04:53:55.870Z,99005.06
2018-12-29T04:56:27.886Z,99003.69
2018-12-29T04:58:59.952Z,99001.10
2018-12-29T05:01:31.937Z,99005.60
2018-12-29T05:04:03.962Z,99005.22
2018-12-29T05:06:35.962Z,99012.47
2018-12-29T05:09:09.798Z,99009.66
2018-12-29T05:11:41.787Z,99010.72
2018-12-29T05:14:13.957Z,99008.13
2018-12-29T05:16:45.957Z,99004.80
2018-12-29T05:19:17.935Z,99005.63
2018-12-29T05:21:50.074Z,99006.25
2018-12-29T05:24:22.119Z,99013.18
2018-12-29T05:26:52.700Z,99013.18
2018-12-29T05:29:24.775Z,99019.61
2018-12-29T05:31:56.934Z,99015.50
2018-12-29T05:34:29.062Z,99013.57
2018-12-29T05:37:01.088Z,99013.57
2018-12-29T05:39:33.287Z,99012.75
2018-12-29T05:42:03.874Z,99015.53
2018-12-29T05:44:35.954Z,99020.42
2018-12-29T05:47:08.202Z,99018.89
2018-12-29T05:49:40.292Z,99017.13
2018-12-29T05:52:10.904Z,99024.38
2018-12-29T05:54:43.292Z,99021.25
2018-12-29T05:57:13.874Z,99023.98
2018-12-29T05:59:45.950Z,99025.00
2018-12-29T06:02:18.284Z,99022.03
2018-12-29T06:04:49.135Z,99033.20
2018-12-29T06:07:21.288Z,99035.91
2018-12-29T06:09:51.732Z,99041.19
2018-12-29T06:12:23.951Z,99039.07
2018-12-29T06:14:55.957Z,99036.33
2018-12-29T06:17:27.956Z,99033.16
2018-12-29T06:19:59.941Z,99035.88
2018-12-29T06:22:31.961Z,99034.53
2018-12-29T06:25:03.955Z,99038.22
2018-12-29T06:27:35.959Z,99026.98
2018-12-29T06:30:08.150Z,99036.23
2018-12-29T06:32:40.117Z,99036.81
2018-12-29T06:35:10.707Z,99044.45
2018-12-29T06:37:42.721Z,99041.29
2018-12-29T06:40:14.756Z,99039.20
2018-12-29T06:42:46.851Z,99044.88
2018-12-29T06:45:18.871Z,99045.24
2018-12-29T06:47:50.948Z,99036.30
2018-12-29T06:50:22.955Z,99036.30
2018-12-29T06:52:55.118Z,99043.09
2018-12-29T06:55:25.734Z,99048.37
2018-12-29T06:57:57.890Z,99052.85
2018-12-29T07:00:29.954Z,99056.41
2018-12-29T07:03:01.954Z,99058.73
2018-12-29T07:05:33.952Z,99059.91
2018-12-29T07:08:05.939Z,99063.83
2018-12-29T07:10:37.950Z,99056.37
2018-12-29T07:13:09.950Z,99057.88
2018-12-29T07:15:41.955Z,99065.13
2018-12-29T07:18:13.942Z,99061.44
2018-12-29T07:20:45.955Z,99063.82
2018-12-29T07:23:18.069Z,99068.92
2018-12-29T07:25:50.114Z,99066.56
2018-12-29T07:28:22.143Z,99067.58
2018-12-29T07:30:52.843Z,99066.73
2018-12-29T07:33:25.153Z,99070.91
2018-12-29T07:35:55.722Z,99065.63
2018-12-29T07:38:27.755Z,99074.60
2018-12-29T07:40:59.947Z,99073.45
2018-12-29T07:43:31.955Z,99071.23
2018-12-29T07:46:03.955Z,99072.61
2018-12-29T07:48:35.964Z,99072.61
2018-12-29T07:51:08.090Z,99073.03
2018-12-29T07:53:40.091Z,99073.03
2018-12-29T07:56:12.297Z,99069.73
2018-12-29T07:58:42.867Z,99072.28
2018-12-29T08:01:14.950Z,99075.61
2018-12-29T08:03:46.960Z,99076.06
2018-12-29T08:06:18.963Z,99069.63
2018-12-29T08:08:50.948Z,99069.23
2018-12-29T08:11:23.106Z,99071.59
2018-12-29T08:13:53.740Z,99066.55
2018-12-29T08:16:25.962Z,99067.16
2018-12-29T08:18:58.084Z,99070.73
2018-12-29T08:21:30.275Z,99074.64
2018-12-29T08:24:00.819Z,99075.84
2018-12-29T08:26:32.949Z,99085.23
2018-12-29T08:29:04.953Z,99090.88
2018-12-29T08:31:36.948Z,99083.88
2018-12-29T08:34:09.106Z,99080.93
2018-12-29T08:36:41.276Z,99084.28
2018-12-29T08:39:11.794Z,99073.69
2018-12-29T08:41:43.943Z,99076.59
2018-12-29T08:44:16.116Z,99081.89
2018-12-29T08:46:48.117Z,99081.33
2018-12-29T08:49:20.266Z,99085.20
2018-12-29T08:51:50.677Z,99083.06
2018-12-29T08:54:23.070Z,99087.59
2018-12-29T08:56:55.118Z,99083.06
2018-12-29T08:59:25.686Z,99083.84
2018-12-29T09:01:57.837Z,99090.12
2018-12-29T09:04:29.876Z,99092.66
2018-12-29T09:07:01.902Z,99093.85
2018-12-29T09:09:33.982Z,99089.56
2018-12-29T09:12:06.124Z,99092.03
2018-12-29T09:14:38.279Z,99089.31
2018-12-29T09:17:12.311Z,99096.92
2018-12-29T09:19:42.623Z,99096.58
2018-12-29T09:22:14.713Z,99096.58
2018-12-29T09:24:46.788Z,99099.74
2018-12-29T09:27:18.859Z,99097.18
2018-12-29T09:29:50.948Z,99101.86
2018-12-29T09:32:23.066Z,99098.95
2018-12-29T09:34:55.091Z,99099.14
2018-12-29T09:37:27.269Z,99102.47
2018-12-29T09:39:57.707Z,99106.34
2018-12-29T09:42:29.927Z,99106.34
2018-12-29T09:45:02.023Z,99103.21
2018-12-29T09:47:34.110Z,99107.11
2018-12-29T09:50:06.671Z,99103.38
2018-12-29T09:52:39.315Z,99102.61
2018-12-29T09:55:11.296Z,99098.12
2018-12-29T09:57:41.870Z,99096.36
2018-12-29T10:00:13.954Z,99100.43
2018-12-29T10:02:46.227Z,99100.43
2018-12-29T10:05:18.370Z,99106.27
2018-12-29T10:07:50.664Z,99095.88
2018-12-29T10:10:22.946Z,99086.11
2018-12-29T10:12:54.953Z,99085.77
2018-12-29T10:15:27.266Z,99090.27
2018-12-29T10:17:57.804Z,99089.27
2018-12-29T10:20:29.964Z,99089.27
2018-12-29T10:23:02.167Z,99083.42
2018-12-29T10:25:34.279Z,99078.27
2018-12-29T10:28:04.804Z,99082.83
2018-12-29T10:30:37.011Z,99082.83
2018-12-29T10:33:09.120Z,99088.50
2018-12-29T10:35:39.801Z,99079.13
2018-12-29T10:38:11.962Z,99074.77
2018-12-29T10:40:44.113Z,99074.77
2018-12-29T10:43:14.799Z,99082.59
2018-12-29T10:45:46.954Z,99081.44
2018-12-29T10:48:19.090Z,99070.86
2018-12-29T10:50:51.137Z,99070.46
2018-12-29T10:53:23.281Z,99066.55
2018-12-29T10:55:54.279Z,99054.77
2018-12-29T10:58:26.277Z,99054.77
2018-12-29T11:00:56.861Z,99052.03
2018-12-29T11:03:28.924Z,99051.77
2018-12-29T11:06:00.973Z,99042.56
2018-12-29T11:08:33.274Z,99041.36
2018-12-29T11:11:04.012Z,99039.16
2018-12-29T11:13:36.273Z,99042.53
2018-12-29T11:16:07.712Z,99031.80
2018-12-29T11:18:39.784Z,99033.75
2018-12-29T11:21:11.830Z,99020.95
2018-12-29T11:23:43.916Z,99024.12
2018-12-29T11:26:15.935Z,99029.99
2018-12-29T11:28:47.950Z,99021.41
2018-12-29T11:31:20.134Z,99003.70
2018-12-29T11:33:52.281Z,99009.11
2018-12-29T11:36:22.857Z,98998.45
2018-12-29T11:38:54.942Z,99000.28
2018-12-29T11:41:26.941Z,99000.28
2018-12-29T11:43:58.933Z,98997.67
2018-12-29T11:46:30.937Z,98993.78
2018-12-29T11:49:02.933Z,98990.92
2018-12-29T11:51:35.193Z,98996.20
2018-12-29T11:54:07.261Z,98983.41
2018-12-29T11:56:38.101Z,98989.08
2018-12-29T11:59:10.595Z,98979.27
2018-12-29T12:01:42.774Z,98979.27
2018-12-29T12:04:14.935Z,98981.53
2018-12-29T12:06:46.936Z,98978.50
2018-12-29T12:09:17.859Z,98977.32
2018-12-29T12:11:50.053Z,98975.35
2018-12-29T12:14:22.162Z,98969.09
2018-12-29T12:16:54.109Z,98971.25
2018-12-29T12:19:26.500Z,98964.48
2018-12-29T12:21:58.674Z,98964.48
2018-12-29T12:24:31.012Z,98969.19
2018-12-29T12:27:03.114Z,98971.54
2018-12-29T12:29:35.090Z,98972.53
2018-12-29T12:32:05.806Z,98965.70
2018-12-29T12:34:37.874Z,98961.20
2018-12-29T12:37:09.915Z,98955.02
2018-12-29T12:39:44.940Z,98958.11
2018-12-29T12:42:17.100Z,98955.95
2018-12-29T12:44:47.647Z,98963.00
2018-12-29T12:47:19.942Z,98955.91
2018-12-29T12:49:52.291Z,98948.66
2018-12-29T12:52:23.335Z,98961.30
2018-12-29T12:54:55.674Z,98949.47
2018-12-29T12:57:27.865Z,98942.51
2018-12-29T12:59:58.695Z,98942.51
2018-12-29T13:02:31.119Z,98936.82
2018-12-29T13:05:01.857Z,98929.34
2018-12-29T13:07:34.094Z,98929.34
2018-12-29T13:10:06.754Z,98937.12
2018-12-29T13:12:39.087Z,98923.38
2018-12-29T13:15:09.687Z,98912.66
2018-12-29T13:17:41.769Z,98908.88
2018-12-29T13:20:13.956Z,98908.69
2018-12-29T13:22:44.784Z,98904.42
2018-12-29T13:25:17.268Z,98894.48
2018-12-29T13:27:49.076Z,98888.26
2018-12-29T13:30:21.225Z,98895.13
2018-12-29T13:32:53.685Z,98896.80
2018-12-29T13:35:25.870Z,98896.80
2018-12-29T13:37:57.943Z,98892.83
2018-12-29T13:40:30.119Z,98894.91
2018-12-29T13:43:02.305Z,98891.59
2018-12-29T13:45:34.273Z,98891.59
2018-12-29T13:48:06.303Z,98905.39
2018-12-29T13:50:39.376Z,98895.92
2018-12-29T13:53:11.765Z,98892.16
2018-12-29T13:55:43.939Z,98893.77
2018-12-29T13:58:16.052Z,98893.17
2018-12-29T14:00:48.264Z,98893.17
2018-12-29T14:03:18.853Z,98894.69
2018-12-29T14:05:50.916Z,98896.92
2018-12-29T14:08:23.265Z,98907.81
2018-12-29T14:10:55.539Z,98907.81
2018-12-29T14:13:27.665Z,98893.34
2018-12-29T14:15:59.937Z,98898.41
2018-12-29T14:18:32.175Z,98900.02
2018-12-29T14:21:02.640Z,98909.23
2018-12-29T14:23:35.277Z,98901.84
2018-12-29T14:26:05.845Z,98904.66
2018-12-29T14:28:37.945Z,98894.72
2018-12-29T14:31:10.241Z,98899.48
2018-12-29T14:33:40.868Z,98905.36
2018-12-29T14:36:12.940Z,98906.55
2018-12-29T14:38:45.100Z,98912.81
2018-12-29T14:41:17.289Z,98908.46
2018-12-29T14:43:47.993Z,98916.00
2018-12-29T14:46:20.266Z,98909.39
2018-12-29T14:48:50.854Z,98910.91
2018-12-29T14:51:22.929Z,98916.00
2018-12-29T14:53:54.938Z,98917.19
2018-12-29T14:56:27.272Z,98916.51
2018-12-29T14:59:00.096Z,98907.34
2018-12-29T15:01:30.907Z,98906.16
2018-12-29T15:04:03.098Z,98900.23
2018-12-29T15:06:33.783Z,98907.25
2018-12-29T15:09:07.973Z,98897.15
2018-12-29T15:11:40.260Z,98897.15
2018-12-29T15:14:12.333Z,98889.52
2018-12-29T15:16:44.679Z,98903.97
2018-12-29T15:19:16.940Z,98903.97
2018-12-29T15:21:49.089Z,98907.94
2018-12-29T15:24:19.674Z,98909.56
2018-12-29T15:26:51.916Z,98909.91
2018-12-29T15:29:22.998Z,98897.75
2018-12-29T15:31:54.945Z,98871.64
2018-12-29T15:34:27.264Z,98871.64
2018-12-29T15:37:01.012Z,98875.75
2018-12-29T15:39:34.153Z,98874.38
2018-12-29T15:42:05.273Z,98874.38
2018-12-29T15:44:36.392Z,98866.74
2018-12-29T15:47:09.281Z,98852.39
2018-12-29T15:49:44.102Z,98839.16
2018-12-29T15:52:16.285Z,98846.27
2018-12-29T15:54:48.775Z,98866.89
2018-12-29T15:57:21.138Z,98865.91
2018-12-29T15:59:54.164Z,98851.41
2018-12-29T16:02:26.279Z,98851.41
2018-12-29T16:04:58.638Z,98832.75
2018-12-29T16:07:30.894Z,98832.75
2018-12-29T16:10:03.099Z,98832.80
2018-12-29T16:12:38.557Z,98828.20
2018-12-29T16:15:11.071Z,98821.55
2018-12-29T16:17:43.285Z,98826.78
2018-12-29T16:20:15.310Z,98827.77
2018-12-29T16:22:47.791Z,98811.47
2018-12-29T16:25:19.955Z,98807.20
2018-12-29T16:27:52.181Z,98783.55
2018-12-29T16:30:22.856Z,98783.55
2018-12-29T16:32:53.991Z,98789.58
2018-12-29T16:35:26.276Z,98786.04
2018-12-29T16:37:58.862Z,98794.27
2018-12-29T16:40:30.946Z,98793.50
2018-12-29T16:43:03.140Z,98794.68
2018-12-29T16:45:35.267Z,98795.41
2018-12-29T16:48:07.682Z,98778.50
2018-12-29T16:50:39.930Z,98779.33
2018-12-29T16:53:12.129Z,98767.44
2018-12-29T16:55:43.267Z,98773.19
2018-12-29T16:58:15.326Z,98768.82
2018-12-29T17:00:47.307Z,98767.98
2018-12-29T17:03:19.653Z,98763.41
2018-12-29T17:05:51.749Z,98760.85
2018-12-29T17:08:23.945Z,98771.58
2018-12-29T17:10:54.868Z,98766.24
2018-12-29T17:13:27.282Z,98774.92
2018-12-29T17:15:58.071Z,98753.87
2018-12-29T17:18:30.136Z,98747.08
2018-12-29T17:21:02.701Z,98747.20
2018-12-29T17:23:34.942Z,98747.20
2018-12-29T17:26:07.116Z,98732.40
2018-12-29T17:28:39.691Z,98735.89
2018-12-29T17:31:11.951Z,98735.89
2018-12-29T17:33:44.281Z,98732.30
2018-12-29T17:36:15.066Z,98733.49
2018-12-29T17:38:47.282Z,98736.23
2018-12-29T17:41:19.313Z,98732.81
2018-12-29T17:43:52.011Z,98725.28
2018-12-29T17:46:24.123Z,98725.28
2018-12-29T17:48:56.283Z,98728.55
2018-12-29T17:51:28.314Z,98729.59
2018-12-29T17:54:00.319Z,98725.03
2018-12-29T17:56:32.861Z,98730.91
2018-12-29T17:59:04.947Z,98728.20
2018-12-29T18:01:37.107Z,98729.97
2018-12-29T18:04:07.864Z,98727.87
2018-12-29T18:06:39.942Z,98734.33
2018-12-29T18:09:12.134Z,98735.30
2018-12-29T18:11:42.706Z,98744.75
2018-12-29T18:14:14.901Z,98750.98
2018-12-29T18:16:47.882Z,98764.45
2018-12-29T18:19:18.691Z,98764.10
2018-12-29T18:21:50.896Z,98784.09
2018-12-29T18:24:23.126Z,98780.99
2018-12-29T18:26:53.850Z,98796.09
2018-12-29T18:29:25.941Z,98789.44
2018-12-29T18:31:58.420Z,98803.94
2018-12-29T18:34:30.727Z,98798.11
2018-12-29T18:37:03.081Z,98798.11
2018-12-29T18:39:35.331Z,98793.77
2018-12-29T18:42:07.628Z,98778.72
2018-12-29T18:44:40.130Z,98778.72
2018-12-29T18:47:12.322Z,98792.56
2018-12-29T18:49:44.320Z,98785.39
2018-12-29T18:52:16.356Z,98794.39
2018-12-29T18:54:48.322Z,98784.61
2018-12-29T18:57:20.300Z,98784.61
2018-12-29T18:59:52.328Z,98773.02
2018-12-29T19:02:24.655Z,98742.92
2018-12-29T19:04:56.888Z,98742.92
2018-12-29T19:07:27.857Z,98728.72
2018-12-29T19:09:59.931Z,98698.00
2018-12-29T19:12:32.266Z,98703.86
2018-12-29T19:15:02.688Z,98707.42
2018-12-29T19:17:35.144Z,98699.20
2018-12-29T19:20:08.332Z,98683.33
2018-12-29T19:22:40.310Z,98669.75
2018-12-29T19:25:12.307Z,98661.58
2018-12-29T19:27:44.316Z,98659.82
2018-12-29T19:30:16.624Z,98633.38
2018-12-29T19:32:49.227Z,98617.09
2018-12-29T19:35:19.784Z,98602.47
2018-12-29T19:37:51.940Z,98595.73
2018-12-29T19:40:23.945Z,98587.44
2018-12-29T19:42:56.276Z,98591.71
2018-12-29T19:45:28.309Z,98583.39
2018-12-29T19:48:00.938Z,98567.48
2018-12-29T19:50:31.695Z,98513.06
2018-12-29T19:53:03.944Z,98513.06
2018-12-29T19:55:36.128Z,98501.17
2018-12-29T19:58:07.003Z,98465.32
2018-12-29T20:00:39.287Z,98494.34
2018-12-29T20:03:12.346Z,98532.88
2018-12-29T20:05:44.784Z,98515.34
2018-12-29T20:08:16.938Z,98524.34
2018-12-29T20:10:48.986Z,98516.91
2018-12-29T20:13:20.939Z,98506.92
2018-12-29T20:15:53.253Z,98503.15
2018-12-29T20:18:24.075Z,98515.98
2018-12-29T20:20:54.841Z,98514.33
2018-12-29T20:23:26.940Z,98489.71
2018-12-29T20:25:59.271Z,98489.71
2018-12-29T20:28:29.990Z,98472.77
2018-12-29T20:31:02.319Z,98472.77
2018-12-29T20:33:34.283Z,98466.28
2018-12-29T20:36:06.656Z,98468.44
2018-12-29T20:38:38.890Z,98465.25
2018-12-29T20:41:10.931Z,98456.47
2018-12-29T20:43:43.267Z,98446.94
2018-12-29T20:46:15.265Z,98444.22
2018-12-29T20:48:47.299Z,98446.94
2018-12-29T20:51:19.352Z,98434.95
2018-12-29T20:53:51.935Z,98429.28
2018-12-29T20:56:24.266Z,98432.73
2018-12-29T20:58:56.312Z,98417.55
2018-12-29T21:01:28.644Z,98412.84
2018-12-29T21:04:00.943Z,98410.95
2018-12-29T21:06:33.274Z,98394.03
2018-12-29T21:09:08.647Z,98389.39
2018-12-29T21:11:40.931Z,98378.77
2018-12-29T21:14:13.243Z,98387.56
2018-12-29T21:16:43.986Z,98387.56
2018-12-29T21:19:16.274Z,98382.88
2018-12-29T21:21:47.039Z,98392.78
2018-12-29T21:24:19.284Z,98370.95
2018-12-29T21:26:51.723Z,98361.95
2018-12-29T21:29:23.954Z,98363.95
2018-12-29T21:31:56.296Z,98358.83
2018-12-29T21:34:28.345Z,98358.16
2018-12-29T21:37:00.626Z,98353.28
2018-12-29T21:39:32.943Z,98353.28
2018-12-29T21:42:05.113Z,98338.87
2018-12-29T21:44:37.278Z,98330.25
2018-12-29T21:47:09.276Z,98324.77
2018-12-29T21:49:41.308Z,98326.14
2018-12-29T21:52:13.297Z,98339.99
2018-12-29T21:54:45.335Z,98339.99
2018-12-29T21:57:15.867Z,98331.27
2018-12-29T21:59:46.852Z,98328.95
2018-12-29T22:04:21.675Z,98333.95
2018-12-29T22:06:54.249Z,98317.98
2018-12-29T22:09:24.857Z,98317.98
2018-12-29T22:11:57.120Z,98310.91
2018-12-29T22:14:27.841Z,98304.52
2018-12-29T22:17:00.100Z,98293.80
2018-12-29T22:19:30.859Z,98299.81
2018-12-29T22:22:03.081Z,98301.55
2018-12-29T22:24:34.025Z,98295.06
2018-12-29T22:27:05.111Z,98297.44
2018-12-29T22:29:35.852Z,98298.99
2018-12-29T22:32:07.941Z,98293.92
2018-12-29T22:34:40.096Z,98300.00
2018-12-29T22:37:12.268Z,98288.22
2018-12-29T22:39:43.286Z,98288.22
2018-12-29T22:42:15.271Z,98287.84
2018-12-29T22:44:47.621Z,98282.18
2018-12-29T22:47:19.934Z,98282.18
2018-12-29T22:49:52.267Z,98286.55
2018-12-29T22:52:24.642Z,98280.10
2018-12-29T22:54:56.695Z,98262.76
2018-12-29T22:57:29.261Z,98262.05
2018-12-29T23:00:01.734Z,98259.48
2018-12-29T23:02:34.269Z,98256.98
2018-12-29T23:05:06.662Z,98251.39
2018-12-29T23:07:38.935Z,98252.92
2018-12-29T23:10:11.099Z,98242.51
2018-12-29T23:12:43.270Z,98246.95
2018-12-29T23:15:15.668Z,98236.47
2018-12-29T23:17:48.140Z,98239.80
2018-12-29T23:20:18.696Z,98228.98
2018-12-29T23:22:50.934Z,98223.72
2018-12-29T23:25:23.255Z,98230.69
2018-12-29T23:27:53.902Z,98218.63
2018-12-29T23:30:26.267Z,98218.13
2018-12-29T23:32:58.419Z,98218.13
2018-12-29T23:35:30.768Z,98218.53
2018-12-29T23:38:01.657Z,98218.53
2018-12-29T23:40:34.103Z,98224.63
2018-12-29T23:43:06.261Z,98210.58
2018-12-29T23:45:38.779Z,98207.11
2018-12-29T23:48:10.935Z,98204.15
2018-12-29T23:50:43.207Z,98209.27
2018-12-29T23:53:15.274Z,98201.59
2018-12-29T23:55:47.690Z,98205.22
2018-12-29T23:58:20.091Z,98196.45
